Time;durP1;ratioP1;P1;durP2;ratioP2;P2;SDS_P1;SDS_P2;PMS_P1;PMS_P2;Temp;Humidity;BMP_temperature;BMP_pressure;BME280_temperature;BME280_humidity;BME280_pressure;Samples;Min_cycle;Max_cycle;Signal;HPM_P1;HPM_P2
2023/10/07 00:03:10;;;;;;;9.23;6.53;;;;;;;13.28;100.00;101848.66;5047368;28;20056;-76
2023/10/07 00:05:36;;;;;;;10.07;6.20;;;;;;;13.30;100.00;101845.72;5074113;28;20035;-76
2023/10/07 00:08:12;;;;;;;9.50;6.45;;;;;;;13.33;100.00;101845.34;5076759;28;20024;-76
2023/10/07 00:10:40;;;;;;;9.88;6.40;;;;;;;13.37;100.00;101841.25;5075258;28;20017;-76
2023/10/07 00:13:12;;;;;;;12.23;6.60;;;;;;;13.26;100.00;101839.03;5074184;28;20024;-76
2023/10/07 00:15:38;;;;;;;12.82;7.10;;;;;;;13.16;100.00;101845.59;5075912;28;20051;-76
2023/10/07 00:18:13;;;;;;;10.73;6.45;;;;;;;13.27;100.00;101838.84;5072825;28;20024;-76
2023/10/07 00:20:50;;;;;;;13.48;6.82;;;;;;;13.22;100.00;101841.28;5062664;28;20489;-76
2023/10/07 00:23:21;;;;;;;9.60;6.72;;;;;;;13.17;100.00;101835.59;5079887;28;20029;-76
2023/10/07 00:25:51;;;;;;;8.32;6.03;;;;;;;13.21;100.00;101836.06;5236003;22;20383;-77
2023/10/07 00:28:36;;;;;;;10.70;6.82;;;;;;;13.14;100.00;101826.00;5095471;28;20048;-77
2023/10/07 00:31:03;;;;;;;7.65;6.00;;;;;;;13.21;100.00;101836.06;5079570;28;20187;-77
2023/10/07 00:33:46;;;;;;;9.38;6.88;;;;;;;13.14;100.00;101836.81;5093537;28;20031;-77
2023/10/07 00:36:14;;;;;;;13.10;6.72;;;;;;;13.23;100.00;101828.63;5094542;28;20047;-77
2023/10/07 00:38:41;;;;;;;13.85;7.00;;;;;;;13.18;100.00;101838.13;5077226;28;20035;-77
2023/10/07 00:41:11;;;;;;;10.65;6.43;;;;;;;13.25;100.00;101846.31;5093804;28;20028;-77
2023/10/07 00:43:37;;;;;;;11.90;6.45;;;;;;;13.30;100.00;101856.56;5091709;28;20100;-76
2023/10/07 00:46:20;;;;;;;12.10;6.90;;;;;;;13.33;100.00;101861.59;5071588;28;20027;-77
2023/10/07 00:48:52;;;;;;;8.43;6.32;;;;;;;13.46;100.00;101867.16;5079597;28;20032;-77
2023/10/07 00:51:24;;;;;;;10.75;6.70;;;;;;;13.54;100.00;101854.56;5058345;28;20032;-77
2023/10/07 00:53:53;;;;;;;11.40;6.45;;;;;;;13.52;100.00;101862.03;5090335;28;20028;-77
2023/10/07 00:58:53;;;;;;;11.18;5.88;;;;;;;13.50;100.00;101851.41;5197167;22;20060;-77
2023/10/07 01:01:22;;;;;;;12.77;6.80;;;;;;;13.41;100.00;101842.59;5096347;28;20039;-77
2023/10/07 01:03:51;;;;;;;10.88;6.80;;;;;;;13.44;100.00;101841.34;5088171;28;20058;-77
2023/10/07 01:06:29;;;;;;;11.38;6.50;;;;;;;13.39;100.00;101860.84;5078343;28;20040;-77
2023/10/07 01:11:40;;;;;;;12.73;6.70;;;;;;;13.46;100.00;101850.94;5092011;28;20132;-77
2023/10/07 01:14:11;;;;;;;12.18;6.38;;;;;;;13.57;100.00;101851.47;5093008;28;20036;-77
2023/10/07 01:16:45;;;;;;;9.00;7.07;;;;;;;13.44;100.00;101847.59;5093547;28;20105;-78
2023/10/07 01:21:58;;;;;;;11.32;6.25;;;;;;;13.53;100.00;101850.19;5060166;28;20051;-76
2023/10/07 01:24:34;;;;;;;9.15;6.18;;;;;;;13.60;100.00;101840.25;5091341;28;20036;-77
2023/10/07 01:27:06;;;;;;;12.43;7.03;;;;;;;13.54;100.00;101841.03;5090466;28;20042;-76
2023/10/07 01:29:34;;;;;;;11.43;6.80;;;;;;;13.59;100.00;101846.72;5099045;28;20038;-75
2023/10/07 01:32:00;;;;;;;10.38;6.80;;;;;;;13.57;100.00;101846.91;5099768;28;20456;-77
2023/10/07 01:34:30;;;;;;;11.38;6.95;;;;;;;13.64;100.00;101838.84;5079861;28;20043;-77
2023/10/07 01:37:00;;;;;;;10.15;6.95;;;;;;;13.64;100.00;101852.38;5091038;28;20140;-77
2023/10/07 01:39:27;;;;;;;7.47;6.28;;;;;;;13.62;100.00;101843.59;5075379;28;20020;-77
2023/10/07 01:41:54;;;;;;;12.98;7.22;;;;;;;13.64;100.00;101830.72;5094031;28;20097;-78
2023/10/07 01:44:24;;;;;;;12.52;7.32;;;;;;;13.62;100.00;101827.38;5093084;28;20034;-78
2023/10/07 01:46:55;;;;;;;12.73;7.13;;;;;;;13.67;100.00;101819.53;5093371;28;20107;-77
2023/10/07 01:49:22;;;;;;;11.02;7.55;;;;;;;13.63;100.00;101824.50;5099056;28;20095;-78
2023/10/07 01:51:52;;;;;;;11.38;7.35;;;;;;;13.63;100.00;101834.47;5095694;28;20020;-78
2023/10/07 01:54:19;;;;;;;10.85;7.50;;;;;;;13.66;100.00;101835.97;5091703;28;20034;-76
2023/10/07 01:56:47;;;;;;;11.30;7.10;;;;;;;13.66;100.00;101838.66;5073647;28;20028;-76
2023/10/07 02:01:42;;;;;;;10.25;7.07;;;;;;;13.62;100.00;101832.78;5092361;28;20500;-76
2023/10/07 02:04:18;;;;;;;11.18;7.45;;;;;;;13.58;100.00;101843.16;5091135;28;20031;-75
2023/10/07 02:06:54;;;;;;;14.02;8.05;;;;;;;13.53;100.00;101839.38;5090967;28;20438;-76
2023/10/07 02:09:27;;;;;;;11.15;7.53;;;;;;;13.45;100.00;101838.44;5092806;28;20034;-76
2023/10/07 02:11:53;;;;;;;11.55;7.22;;;;;;;13.44;100.00;101847.59;5091860;28;20056;-76
2023/10/07 02:14:23;;;;;;;13.15;8.00;;;;;;;13.42;100.00;101838.81;5090433;28;20067;-76
2023/10/07 02:16:49;;;;;;;12.13;7.60;;;;;;;13.53;100.00;101833.94;5092220;28;20020;-76
2023/10/07 02:19:26;;;;;;;12.70;7.90;;;;;;;13.52;100.00;101835.81;5089821;28;20429;-76
2023/10/07 02:21:52;;;;;;;12.63;7.40;;;;;;;13.46;100.00;101831.19;5090601;28;20047;-76
2023/10/07 02:24:21;;;;;;;12.13;7.85;;;;;;;13.48;100.00;101834.53;5090831;28;20036;-76
2023/10/07 02:26:53;;;;;;;12.48;8.02;;;;;;;13.40;100.00;101846.31;5090222;28;20090;-76
2023/10/07 02:29:19;;;;;;;14.65;7.97;;;;;;;13.45;100.00;101837.63;5091238;28;20039;-76
2023/10/07 02:31:45;;;;;;;11.18;8.10;;;;;;;13.52;100.00;101837.69;5090038;28;20384;-76
2023/10/07 02:34:28;;;;;;;15.55;7.90;;;;;;;13.54;100.00;101830.22;5088614;28;20245;-76
2023/10/07 02:37:10;;;;;;;12.50;7.50;;;;;;;13.55;100.00;101821.06;5091276;28;20031;-77
2023/10/07 02:39:45;;;;;;;13.82;7.95;;;;;;;13.49;100.00;101823.50;5092286;28;20032;-78
2023/10/07 02:42:22;;;;;;;13.07;8.30;;;;;;;13.58;100.00;101828.81;5087503;28;20035;-76
2023/10/07 02:45:20;;;;;;;11.63;8.10;;;;;;;13.57;100.00;101829.84;5079891;28;20028;-77
2023/10/07 02:47:50;;;;;;;13.48;7.70;;;;;;;13.58;100.00;101831.50;5083820;28;20032;-76
2023/10/07 02:50:17;;;;;;;12.38;7.75;;;;;;;13.64;100.00;101825.31;5087573;28;20032;-76
2023/10/07 02:52:45;;;;;;;11.25;7.45;;;;;;;13.67;100.00;101824.09;5092877;28;20035;-77
2023/10/07 02:57:46;;;;;;;11.07;7.68;;;;;;;13.61;100.00;101826.53;5090433;28;20113;-77
2023/10/07 03:00:49;;;;;;;11.57;7.78;;;;;;;13.62;100.00;101816.53;5089447;28;20032;-77
2023/10/07 03:05:58;;;;;;;15.57;8.30;;;;;;;13.59;100.00;101822.38;5090165;28;20032;-77
2023/10/07 03:08:31;;;;;;;15.65;8.65;;;;;;;13.56;100.00;101814.63;5090133;28;20509;-76
2023/10/07 03:11:13;;;;;;;13.07;8.40;;;;;;;13.57;100.00;101819.84;5091031;28;20047;-77
2023/10/07 03:13:39;;;;;;;12.38;8.93;;;;;;;13.75;100.00;101822.09;5091120;28;20050;-76
2023/10/07 03:24:10;;;;;;;14.00;8.45;;;;;;;13.83;100.00;101829.25;5075738;28;20395;-77
2023/10/07 03:26:37;;;;;;;16.92;8.65;;;;;;;13.79;100.00;101827.97;5091696;28;20482;-77
2023/10/07 03:29:06;;;;;;;16.83;9.13;;;;;;;13.76;100.00;101837.31;5085062;28;20425;-77
2023/10/07 03:31:47;;;;;;;15.18;9.05;;;;;;;13.77;100.00;101836.25;5089135;28;20032;-77
2023/10/07 03:34:12;;;;;;;16.92;9.77;;;;;;;13.80;100.00;101825.03;5088875;28;20581;-77
2023/10/07 03:36:41;;;;;;;13.80;9.43;;;;;;;13.89;100.00;101816.81;5089559;28;20040;-77
2023/10/07 03:41:47;;;;;;;15.80;9.20;;;;;;;13.83;100.00;101831.97;5089740;28;20044;-77
2023/10/07 03:44:22;;;;;;;12.73;8.85;;;;;;;13.80;100.00;101840.47;5088632;28;20040;-77
2023/10/07 03:46:49;;;;;;;;;;;;;;;13.87;100.00;101835.09;5091797;28;20028;-76
2023/10/07 03:49:16;;;;;;;11.90;8.77;;;;;;;13.72;100.00;101838.72;5088794;28;19916;-75
2023/10/07 03:51:45;;;;;;;13.25;9.23;;;;;;;13.72;100.00;101841.44;5090408;28;20309;-76
2023/10/07 03:54:12;;;;;;;15.07;9.80;;;;;;;13.83;100.00;101840.06;5093231;28;20450;-77
2023/10/07 03:56:37;;;;;;;13.13;9.63;;;;;;;13.74;100.00;101831.25;5094528;28;20102;-76
2023/10/07 03:59:07;;;;;;;17.27;10.02;;;;;;;13.87;100.00;101824.28;5092942;28;20056;-76
2023/10/07 04:01:33;;;;;;;20.13;10.43;;;;;;;13.92;100.00;101828.06;5094892;28;20371;-76
2023/10/07 04:04:01;;;;;;;19.60;10.55;;;;;;;13.91;100.00;101820.16;5096268;28;20026;-76
2023/10/07 04:06:34;;;;;;;16.98;11.02;;;;;;;13.96;100.00;101812.25;5094888;28;20096;-76
2023/10/07 04:09:06;;;;;;;17.77;10.85;;;;;;;13.94;100.00;101826.00;5096151;28;20555;-77
2023/10/07 04:11:36;;;;;;;18.30;10.80;;;;;;;13.86;100.00;101819.91;5095627;28;20024;-76
2023/10/07 04:16:49;;;;;;;18.85;11.30;;;;;;;13.95;100.00;101810.59;5079516;28;20511;-76
2023/10/07 04:21:50;;;;;;;22.33;12.13;;;;;;;13.96;100.00;101817.69;5104679;28;20046;-77
2023/10/07 04:24:23;;;;;;;24.00;11.52;;;;;;;14.03;100.00;101815.06;5092825;28;20046;-77
2023/10/07 04:26:54;;;;;;;21.85;12.18;;;;;;;14.05;100.00;101813.81;5078837;28;20115;-76
2023/10/07 04:29:24;;;;;;;16.35;11.88;;;;;;;14.08;100.00;101810.72;5094361;28;20365;-76
2023/10/07 04:31:53;;;;;;;16.60;11.88;;;;;;;14.16;100.00;101803.47;5094590;28;20169;-77
2023/10/07 04:34:22;;;;;;;19.63;11.63;;;;;;;14.10;100.00;101816.78;5093338;28;20491;-77
2023/10/07 04:39:31;;;;;;;16.92;11.98;;;;;;;14.14;100.00;101803.66;5092638;28;20044;-76
2023/10/07 04:41:57;;;;;;;18.20;12.45;;;;;;;14.15;100.00;101796.38;5086989;28;20035;-77
2023/10/07 04:45:15;;;;;;;17.42;13.38;;;;;;;14.15;100.00;101809.91;5083630;28;20042;-77
2023/10/07 04:52:33;;;;;;;21.27;13.40;;;;;;;14.13;100.00;101818.25;5091412;28;20039;-78
2023/10/07 04:55:00;;;;;;;17.42;13.68;;;;;;;14.09;100.00;101819.66;5093923;28;20032;-76
2023/10/07 04:57:45;;;;;;;20.83;14.32;;;;;;;14.10;100.00;101816.78;5093500;28;20066;-76
2023/10/07 05:03:15;;;;;;;23.88;14.95;;;;;;;14.19;100.00;101805.78;5080125;28;20062;-78
2023/10/07 05:05:43;;;;;;;19.80;14.52;;;;;;;14.15;100.00;101812.63;5091556;28;20020;-78
2023/10/07 05:08:11;;;;;;;24.55;14.70;;;;;;;14.16;100.00;101811.59;5090199;28;20035;-78
2023/10/07 05:10:41;;;;;;;22.85;15.02;;;;;;;14.18;100.00;101815.78;5088057;28;20039;-77
2023/10/07 05:13:08;;;;;;;19.83;14.63;;;;;;;14.24;100.00;101811.44;5076008;28;20028;-77
2023/10/07 05:15:36;;;;;;;20.42;15.07;;;;;;;14.26;100.00;101820.22;5073494;28;20097;-77
2023/10/07 05:18:13;;;;;;;22.35;14.75;;;;;;;14.20;100.00;101815.56;5074750;28;20055;-77
2023/10/07 05:20:42;;;;;;;18.48;14.50;;;;;;;14.31;100.00;101815.00;5093775;28;20028;-77
2023/10/07 05:23:07;;;;;;;18.90;14.52;;;;;;;14.21;100.00;101814.53;5076987;28;20028;-77
2023/10/07 05:25:38;;;;;;;22.30;14.65;;;;;;;14.24;100.00;101809.56;5094735;28;20078;-78
2023/10/07 05:28:10;;;;;;;20.15;14.15;;;;;;;14.31;100.00;101804.19;5095756;28;20048;-76
2023/10/07 05:30:43;;;;;;;19.88;14.40;;;;;;;14.32;100.00;101813.16;5087181;28;20038;-77
2023/10/07 05:33:09;;;;;;;21.77;14.70;;;;;;;14.33;100.00;101812.94;5095556;28;20472;-78
2023/10/07 05:35:37;;;;;;;19.83;14.48;;;;;;;14.33;100.00;101812.94;5090152;28;20491;-77
2023/10/07 05:38:09;;;;;;;25.90;15.43;;;;;;;14.25;100.00;101819.34;5084683;28;20077;-78
2023/10/07 05:40:37;;;;;;;24.27;15.15;;;;;;;14.20;100.00;101823.69;5094718;28;20047;-77
2023/10/07 05:43:08;;;;;;;21.95;15.02;;;;;;;14.35;100.00;101821.72;5094400;28;20119;-78
2023/10/07 05:45:34;;;;;;;20.25;15.05;;;;;;;14.43;100.00;101819.91;5091316;28;20629;-77
2023/10/07 05:48:03;;;;;;;20.80;15.10;;;;;;;14.36;100.00;101817.97;5089294;28;20024;-78
2023/10/07 05:50:32;;;;;;;21.00;15.35;;;;;;;14.43;100.00;101811.78;5093151;28;20043;-78
2023/10/07 05:52:58;;;;;;;21.73;15.07;;;;;;;14.54;100.00;101814.75;5064495;28;20043;-77
2023/10/07 05:55:24;;;;;;;20.60;15.05;;;;;;;14.55;100.00;101810.16;5088811;28;20100;-76
2023/10/07 05:57:52;;;;;;;19.92;14.85;;;;;;;14.56;100.00;101811.84;5090089;28;20043;-76
2023/10/07 06:00:18;;;;;;;23.83;15.05;;;;;;;14.64;100.00;101808.13;5084765;28;20028;-76
2023/10/07 06:02:43;;;;;;;21.90;14.63;;;;;;;14.62;100.00;101802.06;5088737;28;20020;-75
2023/10/07 06:05:10;;;;;;;22.77;14.82;;;;;;;14.70;100.00;101796.53;5091418;28;20126;-76
2023/10/07 06:07:38;;;;;;;20.20;14.38;;;;;;;14.79;100.00;101802.63;5089488;28;20044;-76
2023/10/07 06:10:09;;;;;;;24.30;15.38;;;;;;;14.84;100.00;101803.69;5091138;28;20024;-76
2023/10/07 06:12:37;;;;;;;28.23;14.38;;;;;;;14.93;100.00;101795.34;5072832;28;20111;-76
2023/10/07 06:15:08;;;;;;;19.25;14.55;;;;;;;14.98;100.00;101807.28;5091268;28;20032;-77
2023/10/07 06:17:35;;;;;;;22.83;14.38;;;;;;;15.06;100.00;101797.28;5088941;28;20095;-75
2023/10/07 06:20:14;;;;;;;24.15;15.07;;;;;;;14.86;100.00;101814.31;5090526;28;20023;-77
2023/10/07 06:22:45;;;;;;;20.70;14.82;;;;;;;14.93;100.00;101823.31;5092309;28;20103;-78
2023/10/07 06:25:15;;;;;;;22.17;15.10;;;;;;;15.01;100.00;101828.53;5089719;28;20016;-80
2023/10/07 06:27:43;;;;;;;22.17;15.48;;;;;;;14.89;100.00;101832.06;5088161;28;20032;-75
2023/10/07 06:30:11;;;;;;;24.45;16.48;;;;;;;14.86;100.00;101822.44;5090008;28;20040;-74
2023/10/07 06:32:45;;;;;;;20.67;15.68;;;;;;;14.97;100.00;101819.16;5071078;28;20036;-84
2023/10/07 06:35:14;;;;;;;20.45;15.57;;;;;;;14.97;100.00;101835.44;5090746;28;20100;-77
2023/10/07 06:37:42;;;;;;;20.23;15.38;;;;;;;15.07;100.00;101831.50;5089697;28;20016;-78
2023/10/07 06:40:28;;;;;;;23.80;16.05;;;;;;;15.02;100.00;101840.25;5070311;28;20043;-78
2023/10/07 06:42:56;;;;;;;25.70;16.33;;;;;;;15.03;100.00;101828.38;5089768;28;20028;-80
2023/10/07 06:45:22;;;;;;;24.77;16.23;;;;;;;15.06;100.00;101832.53;5090061;28;20114;-78
2023/10/07 06:47:48;;;;;;;20.75;15.85;;;;;;;15.15;100.00;101826.72;5087519;28;20035;-78
2023/10/07 06:50:19;;;;;;;27.15;16.95;;;;;;;15.21;100.00;101832.38;5090690;28;20043;-78
2023/10/07 06:52:47;;;;;;;25.20;16.10;;;;;;;15.21;100.00;101830.50;5089228;28;20508;-78
2023/10/07 06:55:15;;;;;;;24.85;16.30;;;;;;;15.24;100.00;101821.97;5087527;28;20043;-77
2023/10/07 06:57:42;;;;;;;25.92;15.20;;;;;;;15.19;100.00;101835.28;5088650;28;20036;-79
2023/10/07 07:00:23;;;;;;;20.75;15.77;;;;;;;15.18;100.00;101836.31;5086830;28;20036;-79
2023/10/07 07:02:59;;;;;;;22.85;16.33;;;;;;;15.21;100.00;101840.53;5085046;28;20031;-79
2023/10/07 07:05:25;;;;;;;24.10;15.68;;;;;;;15.36;100.00;101845.75;5088996;28;20035;-79
2023/10/07 07:07:52;;;;;;;20.45;14.93;;;;;;;15.43;100.00;101838.50;5088205;28;20020;-79
2023/10/07 07:10:27;;;;;;;19.70;15.18;;;;;;;15.43;100.00;101838.50;5088217;28;20078;-78
2023/10/07 07:12:59;;;;;;;24.38;16.73;;;;;;;15.46;100.00;101851.66;5089290;28;20521;-78
2023/10/07 07:15:28;;;;;;;22.70;16.60;;;;;;;15.40;100.00;101860.59;5087889;28;20105;-78
2023/10/07 07:18:08;;;;;;;22.15;15.98;;;;;;;15.50;100.00;101874.63;5087738;28;20016;-78
2023/10/07 07:20:48;;;;;;;23.75;16.75;;;;;;;15.36;100.00;101865.59;5089378;28;20027;-78
2023/10/07 07:23:17;;;;;;;21.27;16.30;;;;;;;15.40;100.00;101858.75;5088807;28;20020;-77
2023/10/07 07:25:49;;;;;;;21.30;16.27;;;;;;;15.31;100.00;101868.94;5088959;28;20025;-78
2023/10/07 07:28:16;;;;;;;21.55;15.60;;;;;;;15.43;100.00;101871.06;5091814;28;20297;-78
2023/10/07 07:30:43;;;;;;;21.65;16.42;;;;;;;15.42;100.00;101872.09;5092666;28;20210;-78
2023/10/07 07:33:11;;;;;;;25.13;16.48;;;;;;;15.54;100.00;101884.00;5093146;28;20475;-78
2023/10/07 07:35:43;;;;;;;18.30;15.27;;;;;;;15.72;100.00;101875.28;5093868;28;20020;-78
2023/10/07 07:38:22;;;;;;;24.23;16.30;;;;;;;15.67;100.00;101883.22;5092281;28;20020;-77
2023/10/07 07:40:49;;;;;;;22.65;15.15;;;;;;;15.57;100.00;101872.75;5093694;28;20057;-77
2023/10/07 07:43:15;;;;;;;21.15;15.70;;;;;;;15.77;100.00;101871.97;5093708;28;20043;-78
2023/10/07 07:45:40;;;;;;;22.25;15.30;;;;;;;15.96;100.00;101866.78;5093020;28;20020;-78
2023/10/07 07:48:07;;;;;;;23.73;14.98;;;;;;;16.03;100.00;101859.50;5093519;28;20055;-78
2023/10/07 07:50:35;;;;;;;20.33;14.30;;;;;;;16.13;100.00;101864.50;5086878;28;20146;-79
2023/10/07 07:53:07;;;;;;;20.48;15.43;;;;;;;15.93;100.00;101849.03;5089505;28;20107;-78
2023/10/07 07:55:37;;;;;;;25.55;14.77;;;;;;;16.17;100.00;101833.13;5091610;28;20027;-79
2023/10/07 07:58:09;;;;;;;21.67;13.55;;;;;;;16.07;100.00;101844.44;5093204;28;20087;-77
2023/10/07 08:00:40;;;;;;;19.10;12.43;;;;;;;16.27;99.18;101832.72;5093706;28;20036;-78
2023/10/07 08:03:07;;;;;;;17.48;13.07;;;;;;;16.40;98.19;101842.72;5092455;28;20016;-77
2023/10/07 08:05:35;;;;;;;19.63;12.85;;;;;;;16.31;98.39;101858.41;5092215;28;20052;-77
2023/10/07 08:08:09;;;;;;;16.17;12.32;;;;;;;16.14;99.56;101850.69;5092925;28;20027;-78
2023/10/07 08:10:35;;;;;;;17.50;12.45;;;;;;;16.33;98.65;101861.75;5091358;28;20028;-78
2023/10/07 08:13:01;;;;;;;17.73;12.25;;;;;;;16.44;97.64;101868.44;5088198;28;20356;-79
2023/10/07 08:15:38;;;;;;;16.20;12.10;;;;;;;16.42;97.76;101865.09;5089892;28;20054;-80
2023/10/07 08:18:06;;;;;;;15.85;12.40;;;;;;;16.34;97.66;101860.72;5091494;28;20414;-79
2023/10/07 08:20:44;;;;;;;12.52;10.38;;;;;;;16.48;97.27;101861.53;5094665;28;20467;-81
2023/10/07 08:23:21;;;;;;;16.63;11.30;;;;;;;16.43;97.17;101864.88;5075786;28;20024;-80
2023/10/07 08:25:48;;;;;;;14.05;10.70;;;;;;;16.37;97.58;101872.00;5093270;28;20114;-80
2023/10/07 08:28:18;;;;;;;13.60;10.20;;;;;;;16.36;97.63;101869.50;5095771;28;20040;-80
2023/10/07 08:30:46;;;;;;;14.68;10.02;;;;;;;16.64;95.74;101860.25;5061139;28;20056;-81
2023/10/07 08:33:24;;;;;;;17.20;9.85;;;;;;;16.92;94.03;101862.66;5094875;28;20032;-80
2023/10/07 08:35:55;;;;;;;14.02;9.40;;;;;;;16.99;92.96;101854.50;5095399;28;20032;-80
2023/10/07 08:54:38;;;;;;;11.15;6.65;;;;;;;20.87;71.54;101833.75;5087089;28;20043;-82
2023/10/07 08:57:47;;;;;;;14.32;7.22;;;;;;;20.64;71.54;101850.16;5068786;28;20494;-81
2023/10/07 09:00:50;;;;;;;15.20;7.45;;;;;;;20.93;70.94;101845.63;5079810;28;20095;-82
2023/10/07 09:20:02;;;;;;;11.82;6.47;;;;;;;21.17;67.73;101832.69;4991197;28;20056;-80
2023/10/07 10:06:39;;;;;;;11.57;6.10;;;;;;;21.74;65.44;101852.06;4992931;28;20092;-77
2023/10/07 10:09:14;;;;;;;11.85;5.70;;;;;;;23.12;60.39;101866.09;4993156;28;20038;-79
2023/10/07 10:11:55;;;;;;;10.75;5.80;;;;;;;22.64;61.55;101857.59;4985983;28;20045;-78
2023/10/07 10:14:39;;;;;;;12.57;6.00;;;;;;;22.24;62.99;101859.44;4991527;28;20560;-79
2023/10/07 10:23:37;;;;;;;10.77;6.30;;;;;;;21.13;66.20;101858.88;4957850;28;20046;-80
2023/10/07 10:32:40;;;;;;;10.07;6.35;;;;;;;22.00;64.01;101860.72;4943690;29;20050;-80
2023/10/07 10:35:14;;;;;;;9.70;5.25;;;;;;;21.59;63.67;101855.34;4997296;28;20101;-80
2023/10/07 10:37:39;;;;;;;11.18;5.88;;;;;;;21.03;66.04;101850.47;5003479;28;20048;-79
2023/10/07 10:41:08;;;;;;;8.95;5.47;;;;;;;20.94;66.23;101847.28;5020183;28;20034;-79
2023/10/07 10:47:39;;;;;;;11.50;6.05;;;;;;;20.77;65.74;101851.84;4930132;29;20105;-79
2023/10/07 10:53:27;;;;;;;11.40;6.35;;;;;;;20.08;68.32;101856.88;5141026;23;20073;-80
2023/10/07 10:55:54;;;;;;;11.10;5.95;;;;;;;20.51;66.89;101857.56;5010215;28;20197;-79
2023/10/07 10:58:39;;;;;;;11.65;5.70;;;;;;;20.79;66.12;101857.91;5010500;28;20402;-79
2023/10/07 11:01:07;;;;;;;11.38;6.00;;;;;;;21.07;64.84;101859.88;4992156;28;20033;-79
2023/10/07 11:06:40;;;;;;;9.10;5.80;;;;;;;21.83;62.33;101872.50;4994630;28;20544;-79
2023/10/07 11:09:17;;;;;;;9.18;5.40;;;;;;;22.30;60.71;101865.84;4994623;28;20399;-79
2023/10/07 11:11:58;;;;;;;9.35;5.60;;;;;;;23.01;58.52;101869.81;4993976;28;20087;-79
2023/10/07 11:15:02;;;;;;;9.85;5.63;;;;;;;23.04;60.04;101873.97;5070990;23;20169;-78
2023/10/07 11:17:58;;;;;;;10.07;5.05;;;;;;;24.02;56.16;101867.56;4972057;28;20047;-79
2023/10/07 11:20:57;;;;;;;8.93;5.40;;;;;;;23.16;56.67;101860.94;4974865;28;20118;-79
2023/10/07 11:24:14;;;;;;;12.00;6.03;;;;;;;22.88;56.71;101856.50;4957461;28;20563;-79
2023/10/07 11:26:53;;;;;;;11.85;6.03;;;;;;;22.45;57.95;101857.03;4973939;28;20118;-79
2023/10/07 11:29:38;;;;;;;13.93;6.78;;;;;;;22.00;59.31;101849.75;4982392;28;20125;-79
2023/10/07 11:34:38;;;;;;;11.57;6.55;;;;;;;21.56;61.67;101862.13;4991967;28;20061;-79
2023/10/07 11:38:18;;;;;;;10.80;6.22;;;;;;;21.47;61.84;101849.94;4993515;28;20038;-80
2023/10/07 11:41:16;;;;;;;12.20;6.95;;;;;;;21.13;62.53;101858.88;4896168;29;20458;-79
2023/10/07 11:44:09;;;;;;;12.68;6.85;;;;;;;21.29;62.52;101868.22;4894830;29;20037;-80
2023/10/07 11:46:47;;;;;;;10.98;6.72;;;;;;;21.13;63.09;101869.81;4885531;29;20040;-79
2023/10/07 11:49:15;;;;;;;13.18;7.47;;;;;;;20.69;64.47;101861.25;4896881;29;20040;-79
2023/10/07 11:51:40;;;;;;;15.00;7.55;;;;;;;20.34;65.54;101846.50;4877517;29;20505;-80
2023/10/07 11:54:06;;;;;;;13.02;6.90;;;;;;;20.57;65.89;101851.13;4876155;29;20124;-79
2023/10/07 11:56:53;;;;;;;14.70;7.72;;;;;;;20.07;67.74;101860.66;4877723;29;20535;-79
2023/10/07 11:59:30;;;;;;;11.13;7.00;;;;;;;21.24;64.76;101854.44;4895219;29;20124;-79
2023/10/07 12:01:58;;;;;;;10.50;6.13;;;;;;;22.12;61.18;101853.22;4894422;29;20063;-79
2023/10/07 12:04:47;;;;;;;12.98;6.47;;;;;;;23.31;57.25;101857.53;4925802;28;20034;-80
2023/10/07 12:07:41;;;;;;;11.23;6.20;;;;;;;23.45;56.96;101852.47;4993901;28;20475;-79
2023/10/07 12:13:58;;;;;;;13.30;4.90;;;;;;;25.53;49.65;101861.69;4893676;29;20046;-80
2023/10/07 12:16:39;;;;;;;10.30;5.07;;;;;;;25.14;49.87;101870.38;4895155;29;20135;-80
2023/10/07 12:22:18;;;;;;;9.60;5.00;;;;;;;24.88;50.51;101856.53;5221940;23;20054;-80
2023/10/07 12:24:56;;;;;;;12.45;4.93;;;;;;;24.28;51.41;101873.25;5011399;28;20049;-80
2023/10/07 12:37:46;;;;;;;11.13;5.20;;;;;;;24.42;51.12;101867.28;4998066;28;20469;-80
2023/10/07 12:43:37;;;;;;;;;;;;;;;;;;;;;
2023/10/07 12:49:45;;;;;;;12.40;5.95;;;;;;;23.81;52.98;101849.25;4904303;29;20551;-79
2023/10/07 12:55:34;;;;;;;11.43;5.50;;;;;;;24.22;51.72;101847.66;4980709;23;20157;-79
2023/10/07 12:58:15;;;;;;;12.60;5.07;;;;;;;24.81;50.14;101855.97;4993722;28;20058;-81
2023/10/07 13:00:57;;;;;;;10.50;4.70;;;;;;;24.85;49.88;101848.81;4956729;28;20049;-79
2023/10/07 13:10:09;;;;;;;;;;;;;;;;;;;;;
2023/10/07 13:36:18;;;;;;;9.77;4.85;;;;;;;23.23;57.12;101772.88;4931016;29;20130;-80
2023/10/07 13:39:34;;;;;;;10.73;4.88;;;;;;;23.11;57.20;101792.22;4932464;29;20051;-80
2023/10/07 13:49:15;;;;;;;14.90;5.22;;;;;;;21.82;62.63;101791.38;4987752;28;20048;-80
2023/10/07 13:55:58;;;;;;;10.38;4.38;;;;;;;21.90;63.09;101806.56;4993216;23;20065;-80
2023/10/07 13:58:45;;;;;;;13.15;5.07;;;;;;;21.32;64.96;101806.66;4991919;28;20046;-80
2023/10/07 14:01:18;;;;;;;20.23;5.35;;;;;;;21.15;65.54;101801.16;4990322;28;20062;-80
2023/10/07 14:11:13;;;;;;;15.32;5.40;;;;;;;21.24;65.52;101777.75;4930473;29;20042;-80
2023/10/07 14:20:16;;;;;;;11.73;4.90;;;;;;;21.22;65.42;101781.81;5098566;23;20070;-80
2023/10/07 14:23:00;;;;;;;11.68;4.53;;;;;;;20.91;66.54;101787.56;4992600;28;20038;-79
2023/10/07 14:26:18;;;;;;;14.35;5.15;;;;;;;20.74;67.31;101785.56;5139863;23;20101;-79
2023/10/07 14:54:56;;;;;;;;;;;;;;;20.10;70.44;101760.94;5184805;23;20083;-79
2023/10/07 15:03:19;;;;;;;15.93;5.53;;;;;;;19.96;71.19;101763.94;5207703;23;20173;-81
2023/10/07 15:06:08;;;;;;;13.43;4.80;;;;;;;20.07;70.58;101775.94;4986100;28;20487;-80
2023/10/07 15:08:44;;;;;;;12.48;4.75;;;;;;;19.91;70.23;101772.00;4990596;28;20467;-80
2023/10/07 15:11:16;;;;;;;13.18;4.63;;;;;;;19.79;70.82;101752.81;4990346;28;20113;-80
2023/10/07 15:13:45;;;;;;;17.50;5.28;;;;;;;19.74;70.97;101752.72;4988232;28;20398;-80
2023/10/07 15:16:54;;;;;;;11.32;5.10;;;;;;;19.87;70.55;101756.28;4990952;28;20470;-80
2023/10/07 15:22:09;;;;;;;17.00;5.20;;;;;;;19.79;70.58;101761.03;5161941;23;20065;-79
2023/10/07 15:31:44;;;;;;;18.65;5.88;;;;;;;19.53;72.30;101787.72;5045972;28;20060;-80
2023/10/07 15:57:40;;;;;;;10.95;5.13;;;;;;;19.64;70.46;101804.38;4992576;28;20045;-81
2023/10/07 16:00:55;;;;;;;12.30;5.15;;;;;;;19.60;70.68;101809.47;4993725;28;20039;-80
2023/10/07 16:04:08;;;;;;;13.82;4.80;;;;;;;19.48;70.90;101812.16;4924521;28;20568;-80
2023/10/07 16:13:19;;;;;;;12.50;5.00;;;;;;;19.33;72.15;101836.34;4914496;29;20451;-81
2023/10/07 16:19:53;;;;;;;13.93;5.22;;;;;;;19.37;72.28;101835.63;5232599;23;20067;-80
2023/10/07 16:22:39;;;;;;;12.60;4.90;;;;;;;19.36;72.53;101816.78;5034375;28;20057;-79
2023/10/07 16:25:10;;;;;;;13.23;5.10;;;;;;;19.26;72.57;101800.09;5050950;28;20048;-80
2023/10/07 16:45:39;;;;;;;8.02;3.97;;;;;;;18.97;69.07;101802.59;5031835;28;20627;-81
2023/10/07 16:48:39;;;;;;;7.97;3.80;;;;;;;18.91;69.17;101796.16;5034732;23;20118;-80
2023/10/07 17:04:40;;;;;;;10.32;4.47;;;;;;;18.53;70.31;101805.41;4992249;28;20121;-81
2023/10/07 17:20:06;;;;;;;;;;;;;;;;;;;;;
2023/10/07 17:22:42;;;;;;;10.80;5.07;;;;;;;18.12;72.57;101845.88;4937807;28;20042;-81
2023/10/07 17:25:36;;;;;;;9.98;4.97;;;;;;;18.12;73.11;101845.88;4976753;28;20030;-81
2023/10/07 17:28:41;;;;;;;12.55;5.15;;;;;;;18.08;73.52;101850.94;4991505;28;20046;-80
2023/10/07 17:31:39;;;;;;;11.23;4.68;;;;;;;18.09;73.85;101857.22;4974862;28;20053;-79
2023/10/07 17:34:30;;;;;;;;;;;;;;;;;;;;;
2023/10/07 17:44:47;;;;;;;11.10;4.82;;;;;;;17.96;76.09;101856.25;4992733;28;20041;-80